Terminal Aerodrome Forecast
Issued by NWS

Home | Current Version | Previous Version | Text Only | Print | Product List | Glossary On
Versions: 1 2 3 4 5 6 7 8 9 10 11 12 13 14 15 16 17 18 19 20 21 22 23
000
FTUS43 KDVN 021700
TAFCID
TAF
KCID 021738Z 0218/0318 16006KT P6SM VCTS BKN013CB OVC035
      TEMPO 0220/0224 3SM TSRA BR BKN010CB OVC020
     FM030100 29010KT 6SM SHRA BR OVC008
     FM030500 31012G18KT 5SM BR OVC010
     FM031300 30018G25KT P6SM BKN020=

USA.gov is the U.S. government's official web portal to all federal, state and local government web resources and services.